createdAt,value
2018-09-23T00:00:06.366Z,54.91
2018-09-23T00:01:09.779Z,55.13
2018-09-23T00:02:13.358Z,55.02
2018-09-23T00:03:16.755Z,54.84
2018-09-23T00:04:20.144Z,54.75
2018-09-23T00:05:23.556Z,55.38
2018-09-23T00:06:26.968Z,54.69
2018-09-23T00:07:30.379Z,54.97
2018-09-23T00:08:33.822Z,54.75
2018-09-23T00:09:37.272Z,54.67
2018-09-23T00:10:40.711Z,55.48
2018-09-23T00:11:44.159Z,55.23
2018-09-23T00:12:47.561Z,54.67
2018-09-23T00:13:50.981Z,54.96
2018-09-23T00:14:54.415Z,55.33
2018-09-23T00:15:57.805Z,54.91
2018-09-23T00:17:01.223Z,55.21
2018-09-23T00:18:04.592Z,55.25
2018-09-23T00:19:08.012Z,55.38
2018-09-23T00:20:11.408Z,55.15
2018-09-23T00:21:14.794Z,54.58
2018-09-23T00:22:18.426Z,54.61
2018-09-23T00:23:21.728Z,54.77
2018-09-23T00:24:25.136Z,54.97
2018-09-23T00:25:28.651Z,54.92
2018-09-23T00:26:32.120Z,54.79
2018-09-23T00:27:35.521Z,55.37
2018-09-23T00:28:39.554Z,54.67
2018-09-23T00:29:48.270Z,55.48
2018-09-23T00:30:51.638Z,55.50
2018-09-23T00:31:55.078Z,55.36
2018-09-23T00:32:58.466Z,54.83
2018-09-23T00:34:01.890Z,55.38
2018-09-23T00:35:05.353Z,54.67
2018-09-23T00:36:08.860Z,55.09
2018-09-23T00:37:12.260Z,54.66
2018-09-23T00:38:15.646Z,54.98
2018-09-23T00:39:19.358Z,54.98
2018-09-23T00:40:22.781Z,54.72
2018-09-23T00:41:26.197Z,54.91
2018-09-23T00:42:29.623Z,54.87
2018-09-23T00:43:33.275Z,55.46
2018-09-23T00:44:36.709Z,55.51
2018-09-23T00:45:40.214Z,54.83
2018-09-23T00:46:43.588Z,55.44
2018-09-23T00:47:47.004Z,55.07
2018-09-23T00:48:50.380Z,54.70
2018-09-23T00:49:53.790Z,54.93
2018-09-23T00:50:57.184Z,55.02
2018-09-23T00:52:00.649Z,55.11
2018-09-23T00:53:04.035Z,55.14
2018-09-23T00:54:07.840Z,54.87
2018-09-23T00:55:11.297Z,54.96
2018-09-23T00:56:14.781Z,55.61
2018-09-23T00:57:18.198Z,54.80
2018-09-23T00:58:21.614Z,55.14
2018-09-23T00:59:25.064Z,54.96
2018-09-23T01:00:28.445Z,54.68
2018-09-23T01:01:31.894Z,55.27
2018-09-23T01:02:35.290Z,54.69
2018-09-23T01:03:38.688Z,54.91
2018-09-23T01:04:42.115Z,54.94
2018-09-23T01:05:45.496Z,55.02
2018-09-23T01:06:48.901Z,55.07
2018-09-23T01:07:52.337Z,55.21
2018-09-23T01:08:55.763Z,54.72
2018-09-23T01:09:59.151Z,55.20
2018-09-23T01:11:02.612Z,55.44
2018-09-23T01:12:06.091Z,55.44
2018-09-23T01:13:09.504Z,54.92
2018-09-23T01:14:13.075Z,55.16
2018-09-23T01:15:16.488Z,54.95
2018-09-23T01:16:20.075Z,54.94
2018-09-23T01:17:23.481Z,54.88
2018-09-23T01:18:26.854Z,55.18
2018-09-23T01:19:30.287Z,55.40
2018-09-23T01:20:34.689Z,54.69
2018-09-23T01:21:38.121Z,55.41
2018-09-23T01:22:41.611Z,55.05
2018-09-23T01:23:45.283Z,55.02
2018-09-23T01:24:48.730Z,54.97
2018-09-23T01:25:52.105Z,55.03
2018-09-23T01:26:55.528Z,55.14
2018-09-23T01:27:58.930Z,55.51
2018-09-23T01:29:02.564Z,55.20
2018-09-23T01:30:06.048Z,54.96
2018-09-23T01:31:09.493Z,54.76
2018-09-23T01:32:12.947Z,55.13
2018-09-23T01:33:16.378Z,54.96
2018-09-23T01:34:19.745Z,55.25
2018-09-23T01:35:23.190Z,54.92
2018-09-23T01:36:26.590Z,55.31
2018-09-23T01:37:29.992Z,54.85
2018-09-23T01:38:33.393Z,55.08
2018-09-23T01:39:36.774Z,54.95
2018-09-23T01:40:40.190Z,55.18
2018-09-23T01:41:43.564Z,55.35
2018-09-23T01:42:46.934Z,54.94
2018-09-23T01:43:50.359Z,55.34
2018-09-23T01:44:53.761Z,54.70
2018-09-23T01:45:57.161Z,55.38
2018-09-23T01:47:00.524Z,54.85
2018-09-23T01:48:04.073Z,55.06
2018-09-23T01:49:07.511Z,55.08
2018-09-23T01:50:10.914Z,55.51
2018-09-23T01:51:14.332Z,55.36
2018-09-23T01:52:17.755Z,55.44
2018-09-23T01:53:21.162Z,55.40
2018-09-23T01:54:24.601Z,55.05
2018-09-23T01:55:27.969Z,54.94
2018-09-23T01:56:31.386Z,55.05
2018-09-23T01:57:34.807Z,55.50
2018-09-23T01:58:38.178Z,55.13
2018-09-23T01:59:42.141Z,55.07
2018-09-23T02:00:45.649Z,55.40
2018-09-23T02:01:49.260Z,55.47
2018-09-23T02:02:52.729Z,55.29
2018-09-23T02:03:56.145Z,54.97
2018-09-23T02:04:59.622Z,54.96
2018-09-23T02:06:02.999Z,55.42
2018-09-23T02:07:06.446Z,55.60
2018-09-23T02:08:09.840Z,54.96
2018-09-23T02:09:13.275Z,55.74
2018-09-23T02:10:16.681Z,55.74
2018-09-23T02:11:20.079Z,54.89
2018-09-23T02:12:23.506Z,54.90
2018-09-23T02:13:26.909Z,55.15
2018-09-23T02:14:30.295Z,55.78
2018-09-23T02:15:33.758Z,55.73
2018-09-23T02:16:37.169Z,55.74
2018-09-23T02:17:40.672Z,55.59
2018-09-23T02:18:44.086Z,55.33
2018-09-23T02:19:47.486Z,55.71
2018-09-23T02:20:50.907Z,55.60
2018-09-23T02:21:54.317Z,55.71
2018-09-23T02:22:57.845Z,55.88
2018-09-23T02:24:01.249Z,56.16
2018-09-23T02:25:04.715Z,56.18
2018-09-23T02:26:08.147Z,56.09
2018-09-23T02:27:11.616Z,56.08
2018-09-23T02:28:15.105Z,56.16
2018-09-23T02:29:18.462Z,55.88
2018-09-23T02:30:21.886Z,56.32
2018-09-23T02:31:25.306Z,56.27
2018-09-23T02:32:28.682Z,56.31
2018-09-23T02:33:32.064Z,56.66
2018-09-23T02:34:35.916Z,56.81
2018-09-23T02:35:39.323Z,56.35
2018-09-23T02:36:42.760Z,56.38
2018-09-23T02:37:46.177Z,56.52
2018-09-23T02:38:49.596Z,56.45
2018-09-23T02:39:52.987Z,56.36
2018-09-23T02:40:56.404Z,57.10
2018-09-23T02:41:59.837Z,57.06
2018-09-23T02:43:03.281Z,56.33
2018-09-23T02:44:06.771Z,56.39
2018-09-23T02:45:10.203Z,56.90
2018-09-23T02:46:13.668Z,57.05
2018-09-23T02:47:17.082Z,56.90
2018-09-23T02:48:20.510Z,56.14
2018-09-23T02:49:23.847Z,57.04
2018-09-23T02:50:27.239Z,56.58
2018-09-23T02:51:30.835Z,57.11
2018-09-23T02:52:34.274Z,56.95
2018-09-23T02:53:37.672Z,56.21
2018-09-23T02:54:41.184Z,56.86
2018-09-23T02:55:44.602Z,56.93
2018-09-23T02:56:47.986Z,56.99
2018-09-23T02:57:51.418Z,56.16
2018-09-23T02:58:54.817Z,56.79
2018-09-23T02:59:58.246Z,56.71
2018-09-23T03:01:01.699Z,55.99
2018-09-23T03:02:05.119Z,56.22
2018-09-23T03:03:08.540Z,56.52
2018-09-23T03:04:12.236Z,56.28
2018-09-23T03:05:15.617Z,57.00
2018-09-23T03:06:19.066Z,56.96
2018-09-23T03:07:22.496Z,56.37
2018-09-23T03:08:25.876Z,57.29
2018-09-23T03:09:29.289Z,57.32
2018-09-23T03:10:32.699Z,57.41
2018-09-23T03:11:36.123Z,57.61
2018-09-23T03:12:39.485Z,57.00
2018-09-23T03:13:42.971Z,56.92
2018-09-23T03:14:46.354Z,57.07
2018-09-23T03:15:50.307Z,57.42
2018-09-23T03:16:53.723Z,57.43
2018-09-23T03:17:57.120Z,58.12
2018-09-23T03:19:00.556Z,57.82
2018-09-23T03:20:03.999Z,57.20
2018-09-23T03:21:07.436Z,57.59
2018-09-23T03:22:10.825Z,57.69
2018-09-23T03:23:14.241Z,57.38
2018-09-23T03:24:17.672Z,57.31
2018-09-23T03:25:21.107Z,57.59
2018-09-23T03:26:24.507Z,57.31
2018-09-23T03:27:27.906Z,57.33
2018-09-23T03:28:31.310Z,57.28
2018-09-23T03:29:34.720Z,57.34
2018-09-23T03:30:38.111Z,57.41
2018-09-23T03:31:41.554Z,57.45
2018-09-23T03:32:45.002Z,57.97
2018-09-23T03:33:48.382Z,57.46
2018-09-23T03:34:51.808Z,57.27
2018-09-23T03:35:55.208Z,57.31
2018-09-23T03:36:58.608Z,57.58
2018-09-23T03:38:02.038Z,58.00
2018-09-23T03:39:06.971Z,57.93
2018-09-23T03:40:10.346Z,57.45
2018-09-23T03:41:13.800Z,57.88
2018-09-23T03:42:17.245Z,57.84
2018-09-23T03:43:20.636Z,58.02
2018-09-23T03:44:23.997Z,57.82
2018-09-23T03:45:27.400Z,58.05
2018-09-23T03:46:30.829Z,57.64
2018-09-23T03:47:34.334Z,58.21
2018-09-23T03:48:37.736Z,57.68
2018-09-23T03:49:41.241Z,57.76
2018-09-23T03:50:44.789Z,57.92
2018-09-23T03:51:48.349Z,57.97
2018-09-23T03:52:52.079Z,57.58
2018-09-23T03:53:55.559Z,57.53
2018-09-23T03:54:58.964Z,58.17
2018-09-23T03:56:02.360Z,57.59
2018-09-23T03:57:06.051Z,57.64
2018-09-23T03:58:09.583Z,58.34
2018-09-23T03:59:13.214Z,57.69
2018-09-23T04:00:16.632Z,58.30
2018-09-23T04:01:20.010Z,57.98
2018-09-23T04:02:23.411Z,57.68
2018-09-23T04:03:26.762Z,58.08
2018-09-23T04:04:30.207Z,58.38
2018-09-23T04:05:33.625Z,58.47
2018-09-23T04:06:37.060Z,58.76
2018-09-23T04:07:40.457Z,58.32
2018-09-23T04:08:43.937Z,57.88
2018-09-23T04:09:47.359Z,58.76
2018-09-23T04:10:50.766Z,58.77
2018-09-23T04:11:54.234Z,58.38
2018-09-23T04:12:57.631Z,58.25
2018-09-23T04:14:01.038Z,58.53
2018-09-23T04:15:04.488Z,58.45
2018-09-23T04:16:07.882Z,58.51
2018-09-23T04:17:11.310Z,58.45
2018-09-23T04:18:14.739Z,58.59
2018-09-23T04:19:18.233Z,58.45
2018-09-23T04:20:21.630Z,58.66
2018-09-23T04:21:25.032Z,58.85
2018-09-23T04:22:28.505Z,58.10
2018-09-23T04:23:31.908Z,58.55
2018-09-23T04:24:35.363Z,58.65
2018-09-23T04:25:38.754Z,58.55
2018-09-23T04:26:42.190Z,58.41
2018-09-23T04:27:46.133Z,58.75
2018-09-23T04:28:49.543Z,58.54
2018-09-23T04:29:52.977Z,57.96
2018-09-23T04:30:56.400Z,58.17
2018-09-23T04:31:59.836Z,58.07
2018-09-23T04:33:03.304Z,57.91
2018-09-23T04:34:07.015Z,58.43
2018-09-23T04:35:10.465Z,58.69
2018-09-23T04:36:13.863Z,58.21
2018-09-23T04:37:17.266Z,58.73
2018-09-23T04:38:20.663Z,58.70
2018-09-23T04:39:24.146Z,58.33
2018-09-23T04:40:27.554Z,58.52
2018-09-23T04:41:31.109Z,58.27
2018-09-23T04:42:34.563Z,57.91
2018-09-23T04:43:38.000Z,58.30
2018-09-23T04:44:41.491Z,58.39
2018-09-23T04:45:44.980Z,58.30
2018-09-23T04:46:48.387Z,58.65
2018-09-23T04:47:51.847Z,58.42
2018-09-23T04:48:55.229Z,58.13
2018-09-23T04:49:58.668Z,58.27
2018-09-23T04:51:02.217Z,58.67
2018-09-23T04:52:05.645Z,58.41
2018-09-23T04:53:09.013Z,58.67
2018-09-23T04:54:12.439Z,58.45
2018-09-23T04:55:15.855Z,58.89
2018-09-23T04:56:19.250Z,58.70
2018-09-23T04:57:22.687Z,58.99
2018-09-23T04:58:26.337Z,58.98
2018-09-23T04:59:29.738Z,59.18
2018-09-23T05:00:33.130Z,58.91
2018-09-23T05:01:36.507Z,58.57
2018-09-23T05:02:39.967Z,58.48
2018-09-23T05:03:43.419Z,58.58
2018-09-23T05:04:46.815Z,59.20
2018-09-23T05:05:50.243Z,59.18
2018-09-23T05:06:53.659Z,58.82
2018-09-23T05:07:57.106Z,59.18
2018-09-23T05:09:00.518Z,59.54
2018-09-23T05:10:03.981Z,59.31
2018-09-23T05:11:07.400Z,59.30
2018-09-23T05:12:10.829Z,58.82
2018-09-23T05:13:14.541Z,59.10
2018-09-23T05:14:17.962Z,58.71
2018-09-23T05:15:21.407Z,59.01
2018-09-23T05:16:24.874Z,59.07
2018-09-23T05:17:28.267Z,58.61
2018-09-23T05:18:31.684Z,58.44
2018-09-23T05:19:35.117Z,58.52
2018-09-23T05:20:38.532Z,58.79
2018-09-23T05:21:42.118Z,58.97
2018-09-23T05:22:45.520Z,58.89
2018-09-23T05:23:48.948Z,58.64
2018-09-23T05:24:52.486Z,58.75
2018-09-23T05:25:55.910Z,58.63
2018-09-23T05:26:59.362Z,59.07
2018-09-23T05:28:02.807Z,59.15
2018-09-23T05:29:06.225Z,59.13
2018-09-23T05:30:09.654Z,58.66
2018-09-23T05:31:13.334Z,58.51
2018-09-23T05:32:16.739Z,59.25
2018-09-23T05:33:20.139Z,59.04
2018-09-23T05:34:23.539Z,59.05
2018-09-23T05:35:26.969Z,58.87
2018-09-23T05:36:30.386Z,59.06
2018-09-23T05:37:33.794Z,59.21
2018-09-23T05:38:37.218Z,59.31
2018-09-23T05:39:40.687Z,59.29
2018-09-23T05:40:44.063Z,58.55
2018-09-23T05:41:47.475Z,59.07
2018-09-23T05:42:50.911Z,59.43
2018-09-23T05:43:54.370Z,59.24
2018-09-23T05:44:57.745Z,59.52
2018-09-23T05:46:01.284Z,59.08
2018-09-23T05:47:04.710Z,58.86
2018-09-23T05:48:08.104Z,58.81
2018-09-23T05:49:11.619Z,59.44
2018-09-23T05:50:15.030Z,58.74
2018-09-23T05:51:18.436Z,58.93
2018-09-23T05:52:21.876Z,58.32
2018-09-23T05:53:25.254Z,59.13
2018-09-23T05:54:28.638Z,58.90
2018-09-23T05:55:32.056Z,58.85
2018-09-23T05:56:35.437Z,59.58
2018-09-23T05:57:38.938Z,59.76
2018-09-23T05:58:42.869Z,59.34
2018-09-23T05:59:46.296Z,59.09
2018-09-23T06:00:51.491Z,59.43
2018-09-23T06:01:54.946Z,59.24
2018-09-23T06:02:58.399Z,59.39
2018-09-23T06:04:01.799Z,59.46
2018-09-23T06:05:05.258Z,59.16
2018-09-23T06:06:08.847Z,59.10
2018-09-23T06:07:12.362Z,59.13
2018-09-23T06:08:16.701Z,59.14
2018-09-23T06:09:20.117Z,58.97
2018-09-23T06:10:23.601Z,58.41
2018-09-23T06:11:26.993Z,57.88
2018-09-23T06:12:30.461Z,57.44
2018-09-23T06:13:33.916Z,58.18
2018-09-23T06:14:37.290Z,58.08
2018-09-23T06:15:40.734Z,57.32
2018-09-23T06:16:44.187Z,58.05
2018-09-23T06:17:47.632Z,57.78
2018-09-23T06:18:51.010Z,57.90
2018-09-23T06:19:54.462Z,60.09
2018-09-23T06:20:58.064Z,60.19
2018-09-23T06:22:01.490Z,60.06
2018-09-23T06:23:05.009Z,60.25
2018-09-23T06:24:08.430Z,61.19
2018-09-23T06:25:11.869Z,60.72
2018-09-23T06:26:15.281Z,60.84
2018-09-23T06:27:18.793Z,61.58
2018-09-23T06:28:22.192Z,61.09
2018-09-23T06:29:25.570Z,61.00
2018-09-23T06:30:29.407Z,60.55
2018-09-23T06:31:32.836Z,60.74
2018-09-23T06:32:36.378Z,60.70
2018-09-23T06:33:39.874Z,60.68
2018-09-23T06:34:43.548Z,59.90
2018-09-23T06:35:47.124Z,60.26
2018-09-23T06:36:50.863Z,59.95
2018-09-23T06:37:54.409Z,59.51
2018-09-23T06:38:58.118Z,59.59
2018-09-23T06:40:01.913Z,59.85
2018-09-23T06:41:05.447Z,60.23
2018-09-23T06:42:08.883Z,59.98
2018-09-23T06:43:12.315Z,60.09
2018-09-23T06:44:15.839Z,59.72
2018-09-23T06:45:19.230Z,59.74
2018-09-23T06:46:22.747Z,59.84
2018-09-23T06:47:26.284Z,59.36
2018-09-23T06:48:29.687Z,59.66
2018-09-23T06:49:34.156Z,59.57
2018-09-23T06:50:38.774Z,59.81
2018-09-23T06:51:42.275Z,59.30
2018-09-23T06:52:47.314Z,59.59
2018-09-23T06:53:50.791Z,59.33
2018-09-23T06:54:54.223Z,59.44
2018-09-23T06:55:57.882Z,59.70
2018-09-23T06:57:01.393Z,60.12
2018-09-23T06:58:04.975Z,59.37
2018-09-23T06:59:08.347Z,59.75
2018-09-23T07:00:11.775Z,59.63
2018-09-23T07:01:15.348Z,59.25
2018-09-23T07:02:18.916Z,59.54
2018-09-23T07:03:22.332Z,59.95
2018-09-23T07:04:25.895Z,59.12
2018-09-23T07:05:29.353Z,58.90
2018-09-23T07:06:32.764Z,59.56
2018-09-23T07:07:36.167Z,59.35
2018-09-23T07:08:39.646Z,58.66
2018-09-23T07:09:43.166Z,59.36
2018-09-23T07:10:46.964Z,59.18
2018-09-23T07:11:50.385Z,58.98
2018-09-23T07:12:53.931Z,59.63
2018-09-23T07:13:57.348Z,59.24
2018-09-23T07:15:00.745Z,59.68
2018-09-23T07:16:04.259Z,59.67
2018-09-23T07:17:07.714Z,59.60
2018-09-23T07:18:11.242Z,59.45
2018-09-23T07:19:14.719Z,59.30
2018-09-23T07:20:18.125Z,59.14
2018-09-23T07:21:21.540Z,59.38
2018-09-23T07:22:24.944Z,59.06
2018-09-23T07:23:28.534Z,58.95
2018-09-23T07:24:31.955Z,59.30
2018-09-23T07:25:35.424Z,59.30
2018-09-23T07:26:38.813Z,59.28
2018-09-23T07:27:42.274Z,58.66
2018-09-23T07:28:45.696Z,59.67
2018-09-23T07:29:49.142Z,59.19
2018-09-23T07:30:52.979Z,58.77
2018-09-23T07:31:56.437Z,59.11
2018-09-23T07:32:59.840Z,59.54
2018-09-23T07:34:03.278Z,59.14
2018-09-23T07:35:06.953Z,59.13
2018-09-23T07:36:10.471Z,59.10
2018-09-23T07:37:13.992Z,59.06
2018-09-23T07:38:17.402Z,59.05
2018-09-23T07:39:20.945Z,59.46
2018-09-23T07:40:24.375Z,59.44
2018-09-23T07:41:27.734Z,59.71
2018-09-23T07:42:31.166Z,59.58
2018-09-23T07:43:34.564Z,59.55
2018-09-23T07:44:37.962Z,59.11
2018-09-23T07:45:41.431Z,59.75
2018-09-23T07:46:44.890Z,59.93
2018-09-23T07:47:48.389Z,59.80
2018-09-23T07:48:52.018Z,59.91
2018-09-23T07:49:55.454Z,59.87
2018-09-23T07:50:59.683Z,59.74
2018-09-23T07:52:03.134Z,59.67
2018-09-23T07:53:06.927Z,59.75
2018-09-23T07:54:12.192Z,59.77
2018-09-23T07:55:17.224Z,59.82
2018-09-23T07:56:21.037Z,59.89
2018-09-23T07:57:24.451Z,60.21
2018-09-23T07:58:28.529Z,60.38
2018-09-23T07:59:31.976Z,59.82
2018-09-23T08:00:35.448Z,60.30
2018-09-23T08:01:39.886Z,59.66
2018-09-23T08:02:43.323Z,59.68
2018-09-23T08:03:47.447Z,59.91
2018-09-23T08:04:50.980Z,59.98
2018-09-23T08:05:55.243Z,59.79
2018-09-23T08:06:58.648Z,60.21
2018-09-23T08:08:02.108Z,60.15
2018-09-23T08:09:07.293Z,59.41
2018-09-23T08:10:11.357Z,59.87
2018-09-23T08:11:14.762Z,59.52
2018-09-23T08:12:18.182Z,60.37
2018-09-23T08:13:21.898Z,59.63
2018-09-23T08:14:25.554Z,59.81
2018-09-23T08:15:28.817Z,60.01
2018-09-23T08:16:32.224Z,59.44
2018-09-23T08:17:35.659Z,59.72
2018-09-23T08:18:39.048Z,60.04
2018-09-23T08:19:42.726Z,60.16
2018-09-23T08:20:46.356Z,60.02
2018-09-23T08:21:49.716Z,60.07
2018-09-23T08:22:53.122Z,59.79
2018-09-23T08:23:56.516Z,59.38
2018-09-23T08:24:59.946Z,60.16
2018-09-23T08:26:03.501Z,59.71
2018-09-23T08:27:07.190Z,59.86
2018-09-23T08:28:12.078Z,60.17
2018-09-23T08:29:15.483Z,59.68
2018-09-23T08:30:18.903Z,59.82
2018-09-23T08:31:22.444Z,59.38
2018-09-23T08:32:25.827Z,59.60
2018-09-23T08:33:29.363Z,59.61
2018-09-23T08:34:32.960Z,59.97
2018-09-23T08:35:36.556Z,59.60
2018-09-23T08:36:39.958Z,59.60
2018-09-23T08:37:43.398Z,59.46
2018-09-23T08:38:47.124Z,59.72
2018-09-23T08:39:50.560Z,58.93
2018-09-23T08:40:53.892Z,59.01
2018-09-23T08:41:57.329Z,59.70
2018-09-23T08:43:00.762Z,59.67
2018-09-23T08:44:04.141Z,59.77
2018-09-23T08:45:07.563Z,59.68
2018-09-23T08:46:11.496Z,60.28
2018-09-23T08:47:15.047Z,59.83
2018-09-23T08:48:18.525Z,59.80
2018-09-23T08:49:21.930Z,59.50
2018-09-23T08:50:25.342Z,59.54
2018-09-23T08:51:28.748Z,59.43
2018-09-23T08:52:32.285Z,59.26
2018-09-23T08:53:35.739Z,59.91
2018-09-23T08:54:39.161Z,59.98
2018-09-23T08:55:42.578Z,59.75
2018-09-23T08:56:46.008Z,59.82
2018-09-23T08:57:49.517Z,58.98
2018-09-23T08:58:52.875Z,59.30
2018-09-23T08:59:56.291Z,59.37
2018-09-23T09:00:59.725Z,59.69
2018-09-23T09:02:03.181Z,59.62
2018-09-23T09:03:06.619Z,59.00
2018-09-23T09:04:10.031Z,59.33
2018-09-23T09:05:13.455Z,59.38
2018-09-23T09:06:17.002Z,59.34
2018-09-23T09:07:20.469Z,59.17
2018-09-23T09:08:23.884Z,59.52
2018-09-23T09:09:27.293Z,59.22
2018-09-23T09:10:31.477Z,59.41
2018-09-23T09:11:35.297Z,59.51
2018-09-23T09:12:38.688Z,59.11
2018-09-23T09:13:42.140Z,59.69
2018-09-23T09:14:45.559Z,59.42
2018-09-23T09:15:48.957Z,59.90
2018-09-23T09:16:52.332Z,60.12
2018-09-23T09:17:55.764Z,59.44
2018-09-23T09:18:59.202Z,59.38
2018-09-23T09:20:02.829Z,59.68
2018-09-23T09:21:06.424Z,60.11
2018-09-23T09:22:09.850Z,59.40
2018-09-23T09:23:13.374Z,60.52
2018-09-23T09:24:16.765Z,60.45
2018-09-23T09:25:20.162Z,60.06
2018-09-23T09:26:23.564Z,60.26
2018-09-23T09:27:27.094Z,60.53
2018-09-23T09:28:30.657Z,60.61
2018-09-23T09:29:34.084Z,60.56
2018-09-23T09:30:37.466Z,60.91
2018-09-23T09:31:40.996Z,60.45
2018-09-23T09:32:44.423Z,60.81
2018-09-23T09:33:48.055Z,59.87
2018-09-23T09:34:51.489Z,60.36
2018-09-23T09:35:54.911Z,59.58
2018-09-23T09:36:58.609Z,59.72
2018-09-23T09:38:02.082Z,59.92
2018-09-23T09:39:08.402Z,59.71
2018-09-23T09:40:12.249Z,59.78
2018-09-23T09:41:16.305Z,60.03
2018-09-23T09:42:19.690Z,59.83
2018-09-23T09:43:23.147Z,59.87
2018-09-23T09:44:26.600Z,60.28
2018-09-23T09:45:29.987Z,59.48
2018-09-23T09:46:33.375Z,59.50
2018-09-23T09:47:36.804Z,59.48
2018-09-23T09:48:40.222Z,59.61
2018-09-23T09:49:43.856Z,60.11
2018-09-23T09:50:47.293Z,59.49
2018-09-23T09:51:50.702Z,59.81
2018-09-23T09:52:54.898Z,59.79
2018-09-23T09:53:58.320Z,59.31
2018-09-23T09:55:01.728Z,59.50
2018-09-23T09:56:05.309Z,59.62
2018-09-23T09:57:10.286Z,59.64
2018-09-23T09:58:13.911Z,59.34
2018-09-23T09:59:17.377Z,59.35
2018-09-23T10:00:26.105Z,59.96
2018-09-23T10:01:29.523Z,59.44
2018-09-23T10:02:33.683Z,59.78
2018-09-23T10:03:37.532Z,60.12
2018-09-23T10:04:40.968Z,59.35
2018-09-23T10:05:44.575Z,59.70
2018-09-23T10:06:48.045Z,60.03
2018-09-23T10:07:51.630Z,60.05
2018-09-23T10:08:55.580Z,59.73
2018-09-23T10:09:58.965Z,59.47
2018-09-23T10:11:02.679Z,59.67
2018-09-23T10:12:06.675Z,59.73
2018-09-23T10:13:10.484Z,59.94
2018-09-23T10:14:14.038Z,60.05
2018-09-23T10:15:17.504Z,60.30
2018-09-23T10:16:21.115Z,59.46
2018-09-23T10:17:24.514Z,59.93
2018-09-23T10:18:28.052Z,59.61
2018-09-23T10:19:31.584Z,59.57
2018-09-23T10:20:35.451Z,60.18
2018-09-23T10:21:39.021Z,59.93
2018-09-23T10:22:42.538Z,59.62
2018-09-23T10:23:46.057Z,59.81
2018-09-23T10:24:49.467Z,59.59
2018-09-23T10:25:52.878Z,60.05
2018-09-23T10:26:56.268Z,59.98
2018-09-23T10:28:00.392Z,59.55
2018-09-23T10:29:03.832Z,59.86
2018-09-23T10:30:08.561Z,60.08
2018-09-23T10:31:12.479Z,59.54
2018-09-23T10:32:15.968Z,59.76
2018-09-23T10:33:19.322Z,59.29
2018-09-23T10:34:22.696Z,59.70
2018-09-23T10:35:26.699Z,59.81
2018-09-23T10:36:30.319Z,60.07
2018-09-23T10:37:33.845Z,59.83
2018-09-23T10:38:37.648Z,59.76
2018-09-23T10:39:41.048Z,60.17
2018-09-23T10:40:44.593Z,59.60
2018-09-23T10:41:48.060Z,59.97
2018-09-23T10:42:51.468Z,60.14
2018-09-23T10:43:55.444Z,59.88
2018-09-23T10:44:58.838Z,59.44
2018-09-23T10:46:02.266Z,59.48
2018-09-23T10:47:05.699Z,59.95
2018-09-23T10:48:09.055Z,60.28
2018-09-23T10:49:12.479Z,59.66
2018-09-23T10:50:15.922Z,60.08
2018-09-23T10:51:19.299Z,60.36
2018-09-23T10:52:22.709Z,59.53
2018-09-23T10:53:26.187Z,60.07
2018-09-23T10:54:29.569Z,60.30
2018-09-23T10:55:33.008Z,59.81
2018-09-23T10:56:36.343Z,60.08
2018-09-23T10:57:39.755Z,59.72
2018-09-23T10:58:43.155Z,59.85
2018-09-23T10:59:46.665Z,59.57
2018-09-23T11:00:50.167Z,59.74
2018-09-23T11:01:53.590Z,60.36
2018-09-23T11:02:56.971Z,60.63
2018-09-23T11:04:00.647Z,60.67
2018-09-23T11:05:03.955Z,60.68
2018-09-23T11:06:07.594Z,59.98
2018-09-23T11:07:10.998Z,60.09
2018-09-23T11:08:14.551Z,60.31
2018-09-23T11:09:18.186Z,60.29
2018-09-23T11:10:21.650Z,60.01
2018-09-23T11:11:25.057Z,60.47
2018-09-23T11:12:28.471Z,60.15
2018-09-23T11:13:31.961Z,60.37
2018-09-23T11:14:35.452Z,61.04
2018-09-23T11:15:39.048Z,60.50
2018-09-23T11:16:42.500Z,60.43
2018-09-23T11:17:46.584Z,60.45
2018-09-23T11:18:50.006Z,60.58
2018-09-23T11:19:53.492Z,60.64
2018-09-23T11:20:56.915Z,60.77
2018-09-23T11:22:00.300Z,60.78
2018-09-23T11:23:03.718Z,60.41
2018-09-23T11:24:07.144Z,60.44
2018-09-23T11:25:10.599Z,61.15
2018-09-23T11:26:14.061Z,60.87
2018-09-23T11:27:17.499Z,60.38
2018-09-23T11:28:20.931Z,60.46
2018-09-23T11:29:24.459Z,60.53
2018-09-23T11:30:27.893Z,60.63
2018-09-23T11:31:31.345Z,60.70
2018-09-23T11:32:34.931Z,61.36
2018-09-23T11:33:38.353Z,60.65
2018-09-23T11:34:42.606Z,61.23
2018-09-23T11:35:45.972Z,61.02
2018-09-23T11:36:49.411Z,60.81
2018-09-23T11:37:52.910Z,60.61
2018-09-23T11:38:56.393Z,61.02
2018-09-23T11:39:59.836Z,60.77
2018-09-23T11:41:03.326Z,60.82
2018-09-23T11:42:06.758Z,60.90
2018-09-23T11:43:10.210Z,61.02
2018-09-23T11:44:13.657Z,61.39
2018-09-23T11:45:17.051Z,61.21
2018-09-23T11:46:20.418Z,60.88
2018-09-23T11:47:24.241Z,60.40
2018-09-23T11:48:27.659Z,61.14
2018-09-23T11:49:31.403Z,60.85
2018-09-23T11:50:34.774Z,60.74
2018-09-23T11:51:38.208Z,60.96
2018-09-23T11:52:41.679Z,60.07
2018-09-23T11:53:45.085Z,60.18
2018-09-23T11:54:48.497Z,60.17
2018-09-23T11:55:51.874Z,59.79
2018-09-23T11:56:55.296Z,59.75
2018-09-23T11:57:58.829Z,59.28
2018-09-23T11:59:02.331Z,58.96
2018-09-23T12:00:06.476Z,58.77
2018-09-23T12:01:10.197Z,58.73
2018-09-23T12:02:13.662Z,59.28
2018-09-23T12:03:17.053Z,59.83
2018-09-23T12:04:20.593Z,59.51
2018-09-23T12:05:23.939Z,60.27
2018-09-23T12:06:27.405Z,60.51
2018-09-23T12:07:31.161Z,60.77
2018-09-23T12:08:34.682Z,61.13
2018-09-23T12:09:39.509Z,60.53
2018-09-23T12:10:44.016Z,60.48
2018-09-23T12:11:47.405Z,60.56
2018-09-23T12:12:50.836Z,60.33
2018-09-23T12:13:54.330Z,61.01
2018-09-23T12:14:57.795Z,60.83
2018-09-23T12:16:01.168Z,60.90
2018-09-23T12:17:04.751Z,60.82
2018-09-23T12:18:08.232Z,61.25
2018-09-23T12:19:15.732Z,60.66
2018-09-23T12:20:19.274Z,60.99
2018-09-23T12:21:22.642Z,61.38
2018-09-23T12:22:26.044Z,60.93
2018-09-23T12:23:29.472Z,61.13
2018-09-23T12:24:33.072Z,61.37
2018-09-23T12:25:36.540Z,61.05
2018-09-23T12:26:39.916Z,61.40
2018-09-23T12:27:43.419Z,60.97
2018-09-23T12:28:46.853Z,60.76
2018-09-23T12:29:50.353Z,61.09
2018-09-23T12:30:53.735Z,61.00
2018-09-23T12:31:57.264Z,61.19
2018-09-23T12:33:00.694Z,61.61
2018-09-23T12:34:04.118Z,61.64
2018-09-23T12:35:07.725Z,61.47
2018-09-23T12:36:11.110Z,61.29
2018-09-23T12:37:14.541Z,61.15
2018-09-23T12:38:17.944Z,60.96
2018-09-23T12:39:21.310Z,61.52
2018-09-23T12:40:24.752Z,61.59
2018-09-23T12:41:28.202Z,61.39
2018-09-23T12:42:31.602Z,61.64
2018-09-23T12:43:35.016Z,61.49
2018-09-23T12:44:38.449Z,61.93
2018-09-23T12:45:41.885Z,61.13
2018-09-23T12:46:45.339Z,61.10
2018-09-23T12:47:49.133Z,61.59
2018-09-23T12:48:52.625Z,61.01
2018-09-23T12:49:56.124Z,61.38
2018-09-23T12:50:59.518Z,61.49
2018-09-23T12:52:02.933Z,61.38
2018-09-23T12:53:06.325Z,61.87
2018-09-23T12:54:09.754Z,61.47
2018-09-23T12:55:13.171Z,61.80
2018-09-23T12:56:16.588Z,61.81
2018-09-23T12:57:20.002Z,61.50
2018-09-23T12:58:23.551Z,61.68
2018-09-23T12:59:26.933Z,61.48
2018-09-23T13:00:30.344Z,61.37
2018-09-23T13:01:33.721Z,60.99
2018-09-23T13:02:37.220Z,61.46
2018-09-23T13:03:40.619Z,61.70
2018-09-23T13:04:44.059Z,60.88
2018-09-23T13:05:47.466Z,61.10
2018-09-23T13:06:52.631Z,61.49
2018-09-23T13:07:56.274Z,60.79
2018-09-23T13:08:59.718Z,61.15
2018-09-23T13:10:03.243Z,61.20
2018-09-23T13:11:06.652Z,60.88
2018-09-23T13:12:10.080Z,61.18
2018-09-23T13:13:14.834Z,60.77
2018-09-23T13:14:18.225Z,60.85
2018-09-23T13:15:21.619Z,60.45
2018-09-23T13:16:24.978Z,61.03
2018-09-23T13:17:28.416Z,61.46
2018-09-23T13:18:31.827Z,60.71
2018-09-23T13:19:35.365Z,60.72
2018-09-23T13:20:38.734Z,61.37
2018-09-23T13:21:42.149Z,60.42
2018-09-23T13:22:45.584Z,60.83
2018-09-23T13:23:49.161Z,60.81
2018-09-23T13:24:52.591Z,60.82
2018-09-23T13:25:56.036Z,61.16
2018-09-23T13:26:59.470Z,60.86
2018-09-23T13:28:02.909Z,61.42
2018-09-23T13:29:06.644Z,60.36
2018-09-23T13:30:10.138Z,61.10
2018-09-23T13:31:13.598Z,60.65
2018-09-23T13:32:17.128Z,60.85
2018-09-23T13:33:20.533Z,60.26
2018-09-23T13:34:23.937Z,60.75
2018-09-23T13:35:27.461Z,61.01
2018-09-23T13:36:31.001Z,60.47
2018-09-23T13:37:34.457Z,60.74